createdAt,value
2022-08-24T00:01:06.169Z,21.00
2022-08-24T00:03:35.064Z,21.00
2022-08-24T00:06:03.961Z,21.00
2022-08-24T00:08:31.581Z,20.90
2022-08-24T00:10:59.841Z,20.80
2022-08-24T00:13:28.697Z,20.80
2022-08-24T00:16:03.899Z,20.70
2022-08-24T00:18:30.820Z,20.70
2022-08-24T00:20:57.797Z,20.60
2022-08-24T00:23:24.713Z,20.50
2022-08-24T00:25:52.134Z,20.50
2022-08-24T00:28:19.025Z,20.50
2022-08-24T00:30:46.009Z,20.40
2022-08-24T00:33:12.923Z,20.40
2022-08-24T00:35:39.955Z,20.30
2022-08-24T00:38:07.220Z,20.30
2022-08-24T00:40:37.807Z,20.20
2022-08-24T00:43:06.936Z,20.30
2022-08-24T00:46:23.639Z,20.20
2022-08-24T00:48:55.116Z,20.10
2022-08-24T00:51:30.464Z,20.00
2022-08-24T00:54:02.880Z,20.00
2022-08-24T00:56:34.710Z,20.10
2022-08-24T00:59:07.903Z,20.20
2022-08-24T01:01:35.971Z,20.20
2022-08-24T01:04:03.664Z,20.10
2022-08-24T01:06:33.414Z,19.90
2022-08-24T01:09:00.684Z,19.90
2022-08-24T01:11:33.840Z,19.70
2022-08-24T01:14:03.378Z,19.70
2022-08-24T01:16:49.639Z,19.70
2022-08-24T01:19:33.113Z,19.70
2022-08-24T01:22:39.964Z,19.70
2022-08-24T01:25:09.365Z,19.70
2022-08-24T01:27:37.802Z,19.70
2022-08-24T01:30:09.243Z,19.70
2022-08-24T01:32:37.235Z,19.70
2022-08-24T01:35:05.161Z,19.70
2022-08-24T01:37:33.106Z,19.60
2022-08-24T01:40:03.658Z,19.60
2022-08-24T01:42:30.610Z,19.50
2022-08-24T01:44:57.602Z,19.50
2022-08-24T01:47:24.561Z,19.40
2022-08-24T01:49:51.611Z,19.30
2022-08-24T01:52:21.947Z,19.30
2022-08-24T01:54:49.497Z,19.20
2022-08-24T01:57:17.236Z,19.10
2022-08-24T01:59:44.652Z,19.00
2022-08-24T02:02:29.451Z,19.00
2022-08-24T02:04:56.647Z,19.00
2022-08-24T02:07:24.637Z,19.00
2022-08-24T02:09:51.783Z,19.10
2022-08-24T02:12:19.888Z,19.10
2022-08-24T02:14:47.496Z,19.10
2022-08-24T02:17:14.414Z,19.20
2022-08-24T02:19:41.697Z,19.10
2022-08-24T02:22:08.740Z,19.10
2022-08-24T02:24:35.827Z,19.10
2022-08-24T02:27:03.057Z,19.10
2022-08-24T02:29:29.999Z,19.00
2022-08-24T02:31:57.941Z,18.90
2022-08-24T02:34:25.086Z,18.80
2022-08-24T02:36:53.748Z,18.80
2022-08-24T02:39:21.151Z,18.80
2022-08-24T02:41:48.077Z,18.80
2022-08-24T02:44:15.088Z,18.90
2022-08-24T02:46:42.674Z,18.90
2022-08-24T02:49:11.499Z,18.90
2022-08-24T02:51:44.068Z,18.90
2022-08-24T02:54:12.946Z,18.80
2022-08-24T02:56:39.864Z,18.60
2022-08-24T02:59:06.876Z,18.50
2022-08-24T03:01:33.973Z,18.50
2022-08-24T03:04:01.090Z,18.50
2022-08-24T03:06:28.005Z,18.50
2022-08-24T03:08:56.653Z,18.50
2022-08-24T03:11:27.927Z,18.50
2022-08-24T03:13:57.662Z,18.40
2022-08-24T03:16:24.810Z,18.40
2022-08-24T03:18:51.805Z,18.30
2022-08-24T03:21:18.936Z,18.30
2022-08-24T03:23:45.868Z,18.30
2022-08-24T03:26:12.964Z,18.20
2022-08-24T03:28:40.348Z,18.10
2022-08-24T03:31:07.579Z,18.10
2022-08-24T03:33:34.903Z,18.00
2022-08-24T03:36:01.768Z,18.00
2022-08-24T03:38:30.111Z,17.90
2022-08-24T03:40:57.016Z,17.90
2022-08-24T03:43:42.525Z,17.90
2022-08-24T03:46:12.018Z,17.90
2022-08-24T03:48:40.558Z,17.90
2022-08-24T03:51:10.688Z,17.90
2022-08-24T03:53:37.886Z,17.80
2022-08-24T03:56:10.651Z,17.90
2022-08-24T03:58:38.946Z,18.00
2022-08-24T04:01:06.195Z,18.00
2022-08-24T04:03:37.113Z,17.90
2022-08-24T04:06:05.496Z,17.90
2022-08-24T04:08:33.583Z,17.90
2022-08-24T04:11:01.823Z,17.80
2022-08-24T04:13:32.478Z,17.90
2022-08-24T04:16:05.606Z,17.80
2022-08-24T04:18:32.541Z,17.80
2022-08-24T04:20:59.874Z,17.80
2022-08-24T04:23:39.332Z,17.80
2022-08-24T04:26:14.489Z,17.70
2022-08-24T04:28:41.357Z,17.70
2022-08-24T04:31:08.350Z,17.60
2022-08-24T04:33:35.528Z,17.60
2022-08-24T04:36:06.092Z,17.60
2022-08-24T04:38:32.969Z,17.60
2022-08-24T04:41:00.387Z,17.60
2022-08-24T04:43:27.508Z,17.60
2022-08-24T04:45:54.471Z,17.70
2022-08-24T04:48:21.400Z,17.80
2022-08-24T04:50:49.384Z,17.90
2022-08-24T04:53:16.799Z,17.90
2022-08-24T04:55:52.225Z,18.10
2022-08-24T04:58:19.269Z,18.30
2022-08-24T05:00:46.952Z,18.60
2022-08-24T05:03:14.037Z,18.80
2022-08-24T05:05:46.529Z,19.10
2022-08-24T05:08:14.505Z,19.40
2022-08-24T05:10:43.606Z,19.70
2022-08-24T05:13:11.592Z,19.90
2022-08-24T05:15:43.777Z,20.20
2022-08-24T05:18:11.493Z,20.40
2022-08-24T05:20:43.392Z,20.70
2022-08-24T05:23:11.022Z,21.00
2022-08-24T05:25:38.880Z,21.30
2022-08-24T05:28:06.284Z,21.50
2022-08-24T05:30:33.437Z,21.70
2022-08-24T05:33:00.714Z,22.10
2022-08-24T05:35:27.849Z,22.50
2022-08-24T05:37:54.793Z,22.90
2022-08-24T05:40:23.424Z,23.10
2022-08-24T05:42:50.420Z,23.50
2022-08-24T05:45:17.647Z,23.60
2022-08-24T05:47:45.373Z,23.80
2022-08-24T05:50:12.595Z,24.10
2022-08-24T05:52:39.540Z,24.60
2022-08-24T05:55:07.131Z,24.80
2022-08-24T05:57:36.096Z,24.80
2022-08-24T06:00:05.942Z,24.90
2022-08-24T06:02:32.950Z,25.30
2022-08-24T06:04:59.897Z,25.60
2022-08-24T06:07:27.129Z,25.70
2022-08-24T06:09:54.246Z,25.60
2022-08-24T06:12:21.207Z,25.60
2022-08-24T06:14:48.362Z,25.70
2022-08-24T06:17:15.450Z,26.30
2022-08-24T06:19:43.876Z,26.50
2022-08-24T06:22:10.813Z,26.60
2022-08-24T06:24:58.543Z,26.70
2022-08-24T06:27:26.315Z,26.50
2022-08-24T06:30:01.028Z,26.80
2022-08-24T06:32:28.021Z,26.80
2022-08-24T06:34:57.959Z,26.60
2022-08-24T06:37:29.311Z,27.10
2022-08-24T06:39:58.045Z,27.20
2022-08-24T06:42:25.451Z,27.30
2022-08-24T06:44:52.999Z,27.70
2022-08-24T06:47:19.881Z,28.30
2022-08-24T06:49:46.828Z,28.90
2022-08-24T06:52:13.926Z,29.40
2022-08-24T06:54:40.891Z,29.70
2022-08-24T06:57:07.796Z,29.90
2022-08-24T06:59:34.820Z,29.60
2022-08-24T07:02:02.220Z,29.60
2022-08-24T07:04:29.229Z,29.60
2022-08-24T07:06:57.722Z,29.80
2022-08-24T07:09:27.676Z,29.40
2022-08-24T07:11:54.668Z,29.20
2022-08-24T07:14:21.738Z,29.10
2022-08-24T07:16:49.262Z,28.90
2022-08-24T07:19:16.446Z,29.00
2022-08-24T07:21:43.582Z,29.00
2022-08-24T07:24:10.912Z,29.40
2022-08-24T07:26:39.477Z,29.90
2022-08-24T07:29:36.503Z,30.30
2022-08-24T07:31:59.114Z,30.30
2022-08-24T07:34:29.170Z,30.10
2022-08-24T07:36:56.450Z,30.20
2022-08-24T07:39:23.392Z,30.60
2022-08-24T07:42:12.321Z,30.70
2022-08-24T07:44:38.858Z,31.20
2022-08-24T07:47:21.138Z,31.80
2022-08-24T07:49:53.717Z,32.40
2022-08-24T07:52:20.663Z,32.70
2022-08-24T07:54:47.575Z,33.10
2022-08-24T07:57:15.315Z,33.30
2022-08-24T07:59:42.621Z,33.30
2022-08-24T08:02:11.524Z,33.10
2022-08-24T08:04:38.555Z,33.30
2022-08-24T08:07:06.299Z,34.30
2022-08-24T08:09:34.219Z,34.70
2022-08-24T08:12:01.200Z,35.20
2022-08-24T08:14:28.293Z,35.10
2022-08-24T08:16:55.685Z,34.80
2022-08-24T08:19:22.665Z,34.70
2022-08-24T08:22:09.830Z,34.60
2022-08-24T08:24:39.853Z,34.50
2022-08-24T08:27:06.953Z,35.00
2022-08-24T08:29:35.101Z,35.30
2022-08-24T08:32:02.794Z,35.40
2022-08-24T08:34:31.670Z,35.40
2022-08-24T08:36:59.808Z,35.80
2022-08-24T08:39:27.743Z,35.80
2022-08-24T08:42:38.886Z,35.70
2022-08-24T08:45:49.756Z,35.20
2022-08-24T08:49:01.339Z,35.80
2022-08-24T08:51:47.176Z,36.20
2022-08-24T08:54:39.427Z,36.20
2022-08-24T08:57:43.999Z,36.30
2022-08-24T09:00:24.575Z,36.60
2022-08-24T09:03:29.912Z,35.60
2022-08-24T09:06:40.689Z,35.00
2022-08-24T09:10:03.221Z,35.70
2022-08-24T09:46:27.939Z,34.70
2022-08-24T09:49:32.523Z,34.90
2022-08-24T09:55:58.726Z,34.90
2022-08-24T09:58:47.686Z,34.60
2022-08-24T10:01:52.050Z,34.80
2022-08-24T10:04:43.764Z,35.30
2022-08-24T10:07:31.812Z,35.00
2022-08-24T10:10:36.361Z,35.80
2022-08-24T10:13:17.878Z,34.70
2022-08-24T10:16:25.620Z,33.80
2022-08-24T10:19:33.901Z,34.80
2022-08-24T10:22:18.426Z,35.40
2022-08-24T10:25:29.329Z,35.10
2022-08-24T10:28:55.000Z,35.00
2022-08-24T10:31:38.542Z,34.60
2022-08-24T10:34:47.672Z,34.40
2022-08-24T10:37:52.026Z,34.70
2022-08-24T10:40:45.887Z,35.30
2022-08-24T10:49:56.782Z,33.80
2022-08-24T11:04:08.684Z,33.90
2022-08-24T11:07:00.795Z,34.00
2022-08-24T11:09:47.292Z,34.40
2022-08-24T11:12:27.813Z,35.10
2022-08-24T11:14:57.477Z,35.40
2022-08-24T11:17:27.624Z,34.80
2022-08-24T11:19:55.260Z,34.70
2022-08-24T11:22:47.591Z,35.00
2022-08-24T11:25:21.804Z,34.50
2022-08-24T11:27:52.072Z,35.30
2022-08-24T11:30:29.521Z,36.10
2022-08-24T11:33:05.277Z,36.60
2022-08-24T11:35:41.349Z,36.90
2022-08-24T11:38:25.999Z,37.20
2022-08-24T11:41:13.213Z,37.60
2022-08-24T11:44:28.216Z,36.80
2022-08-24T11:47:30.016Z,36.00
2022-08-24T11:50:18.509Z,36.10
2022-08-24T11:52:59.213Z,36.50
2022-08-24T11:56:06.125Z,37.20
2022-08-24T11:59:25.145Z,37.10
2022-08-24T12:01:57.094Z,37.20
2022-08-24T12:05:01.402Z,36.30
2022-08-24T12:08:21.425Z,35.80
2022-08-24T12:10:54.794Z,34.80
2022-08-24T12:14:06.258Z,35.60
2022-08-24T12:17:00.871Z,36.20
2022-08-24T12:19:38.731Z,37.60
2022-08-24T12:22:08.049Z,37.90
2022-08-24T12:27:44.421Z,36.20
2022-08-24T12:30:15.092Z,37.00
2022-08-24T12:33:09.875Z,37.50
2022-08-24T12:35:45.823Z,38.40
2022-08-24T12:38:27.811Z,39.00
2022-08-24T12:41:17.778Z,38.80
2022-08-24T12:43:57.570Z,37.90
2022-08-24T12:46:26.504Z,37.30
2022-08-24T12:49:00.992Z,37.20
2022-08-24T12:52:03.170Z,38.00
2022-08-24T12:55:11.736Z,37.90
2022-08-24T12:57:54.047Z,38.30
2022-08-24T13:00:32.374Z,38.20
2022-08-24T13:03:03.076Z,37.00
2022-08-24T13:06:00.433Z,35.80
2022-08-24T13:08:41.581Z,36.20
2022-08-24T13:11:13.569Z,36.10
2022-08-24T13:14:04.436Z,35.40
2022-08-24T13:17:11.918Z,35.80
2022-08-24T13:19:43.832Z,36.30
2022-08-24T13:22:37.914Z,35.80
2022-08-24T13:40:13.966Z,34.70
2022-08-24T13:43:12.900Z,35.50
2022-08-24T13:45:51.481Z,36.00
2022-08-24T13:49:01.700Z,35.90
2022-08-24T13:52:08.718Z,35.10
2022-08-24T13:55:10.262Z,35.70
2022-08-24T13:57:44.492Z,36.30
2022-08-24T14:00:53.146Z,35.30
2022-08-24T14:03:45.086Z,34.20
2022-08-24T14:06:35.936Z,34.30
2022-08-24T14:09:36.380Z,33.70
2022-08-24T14:12:35.879Z,34.00
2022-08-24T14:15:26.248Z,34.40
2022-08-24T14:18:22.415Z,34.40
2022-08-24T14:21:17.879Z,33.80
2022-08-24T14:24:02.829Z,33.50
2022-08-24T14:27:04.858Z,33.50
2022-08-24T14:30:21.917Z,33.30
2022-08-24T14:33:28.161Z,33.00
2022-08-24T14:36:27.942Z,32.80
2022-08-24T14:39:01.611Z,32.50
2022-08-24T14:41:52.556Z,32.20
2022-08-24T14:44:58.753Z,32.10
2022-08-24T14:48:02.579Z,32.10
2022-08-24T14:50:58.289Z,31.90
2022-08-24T14:53:57.517Z,32.00
2022-08-24T14:57:19.573Z,32.20
2022-08-24T15:00:19.405Z,32.20
2022-08-24T15:03:31.108Z,32.20
2022-08-24T15:06:27.304Z,32.00
2022-08-24T15:09:28.620Z,32.00
2022-08-24T15:12:03.302Z,31.90
2022-08-24T15:14:53.395Z,31.80
2022-08-24T15:17:35.329Z,31.70
2022-08-24T15:20:15.514Z,31.60
2022-08-24T15:23:04.076Z,31.60
2022-08-24T15:25:45.066Z,31.40
2022-08-24T15:28:21.385Z,31.50
2022-08-24T15:30:58.246Z,31.60
2022-08-24T15:33:26.450Z,31.60
2022-08-24T15:36:13.873Z,31.60
2022-08-24T15:38:42.776Z,31.60
2022-08-24T15:41:30.726Z,31.60
2022-08-24T15:44:23.414Z,31.70
2022-08-24T15:47:04.268Z,31.70
2022-08-24T15:49:37.999Z,31.60
2022-08-24T15:52:09.025Z,31.50
2022-08-24T15:54:56.217Z,31.60
2022-08-24T15:57:30.037Z,31.60
2022-08-24T16:00:53.911Z,31.60
2022-08-24T16:03:26.956Z,31.60
2022-08-24T16:05:57.003Z,31.70
2022-08-24T16:08:24.635Z,31.70
2022-08-24T16:10:57.665Z,31.60
2022-08-24T16:13:30.814Z,31.60
2022-08-24T16:16:12.820Z,31.60
2022-08-24T16:19:02.111Z,31.50
2022-08-24T16:21:41.894Z,31.40
2022-08-24T16:24:11.261Z,31.40
2022-08-24T16:27:14.765Z,31.40
2022-08-24T16:29:47.906Z,31.40
2022-08-24T16:32:33.363Z,31.30
2022-08-24T16:35:19.848Z,31.30
2022-08-24T16:37:46.889Z,31.20
2022-08-24T16:40:14.174Z,31.20
2022-08-24T16:42:41.346Z,31.10
2022-08-24T16:45:10.869Z,31.10
2022-08-24T16:47:38.292Z,31.00
2022-08-24T16:50:06.591Z,31.10
2022-08-24T16:52:33.964Z,31.10
2022-08-24T16:55:01.608Z,31.10
2022-08-24T16:57:31.122Z,31.10
2022-08-24T16:59:58.848Z,31.00
2022-08-24T17:02:26.149Z,31.00
2022-08-24T17:04:54.685Z,31.00
2022-08-24T17:07:26.880Z,30.90
2022-08-24T17:09:55.784Z,30.90
2022-08-24T17:12:23.567Z,30.80
2022-08-24T17:14:50.601Z,30.80
2022-08-24T17:17:21.432Z,30.80
2022-08-24T17:19:54.359Z,30.80
2022-08-24T17:22:25.620Z,30.80
2022-08-24T17:24:52.619Z,30.80
2022-08-24T17:27:23.518Z,30.70
2022-08-24T17:29:50.779Z,30.60
2022-08-24T17:32:18.619Z,30.60
2022-08-24T17:34:45.548Z,30.50
2022-08-24T17:37:13.690Z,30.50
2022-08-24T17:39:40.633Z,30.50
2022-08-24T17:42:27.986Z,30.50
2022-08-24T17:44:54.910Z,30.50
2022-08-24T17:47:22.405Z,30.40
2022-08-24T17:49:49.437Z,30.30
2022-08-24T17:52:16.467Z,30.30
2022-08-24T17:54:43.443Z,30.20
2022-08-24T17:57:13.202Z,30.10
2022-08-24T17:59:40.630Z,30.00
2022-08-24T18:02:12.039Z,30.00
2022-08-24T18:04:39.592Z,29.80
2022-08-24T18:07:11.844Z,29.80
2022-08-24T18:09:50.636Z,29.80
2022-08-24T18:12:21.507Z,29.80
2022-08-24T18:14:49.486Z,29.70
2022-08-24T18:17:22.655Z,29.70
2022-08-24T18:19:52.691Z,29.60
2022-08-24T18:22:19.602Z,29.60
2022-08-24T18:24:46.566Z,29.60
2022-08-24T18:27:19.817Z,29.50
2022-08-24T18:29:55.023Z,29.40
2022-08-24T18:32:24.518Z,29.30
2022-08-24T18:34:59.482Z,29.30
2022-08-24T18:37:26.361Z,29.20
2022-08-24T18:39:53.314Z,29.10
2022-08-24T18:42:21.092Z,29.00
2022-08-24T18:44:48.661Z,29.00
2022-08-24T18:47:16.145Z,28.80
2022-08-24T18:49:43.401Z,28.70
2022-08-24T18:52:13.232Z,28.60
2022-08-24T18:54:42.664Z,28.70
2022-08-24T18:57:09.633Z,28.60
2022-08-24T18:59:40.924Z,28.60
2022-08-24T19:02:31.021Z,28.50
2022-08-24T19:05:06.538Z,28.40
2022-08-24T19:07:39.872Z,28.30
2022-08-24T19:10:08.822Z,28.10
2022-08-24T19:12:42.481Z,28.00
2022-08-24T19:15:29.394Z,28.00
2022-08-24T19:18:03.431Z,27.90
2022-08-24T19:20:33.186Z,27.90
2022-08-24T19:23:07.232Z,27.80
2022-08-24T19:25:35.318Z,27.60
2022-08-24T19:28:02.768Z,27.60
2022-08-24T19:30:29.762Z,27.60
2022-08-24T19:32:57.913Z,27.50
2022-08-24T19:35:25.128Z,27.50
2022-08-24T19:37:52.169Z,27.40
2022-08-24T19:40:21.480Z,27.30
2022-08-24T19:42:53.724Z,27.30
2022-08-24T19:45:43.534Z,27.20
2022-08-24T19:48:14.395Z,27.10
2022-08-24T19:50:41.469Z,27.00
2022-08-24T19:53:10.335Z,26.90
2022-08-24T19:55:37.309Z,26.90
2022-08-24T19:58:23.627Z,26.80
2022-08-24T20:00:57.731Z,26.80
2022-08-24T20:03:25.289Z,26.60
2022-08-24T20:05:52.525Z,26.50
2022-08-24T20:08:20.975Z,26.50
2022-08-24T20:10:49.898Z,26.40
2022-08-24T20:13:17.399Z,26.30
2022-08-24T20:15:44.430Z,26.30
2022-08-24T20:18:11.518Z,26.20
2022-08-24T20:20:38.735Z,26.10
2022-08-24T20:23:06.210Z,26.00
2022-08-24T20:25:39.573Z,26.00
2022-08-24T20:30:55.898Z,25.90
2022-08-24T20:33:23.960Z,25.80
2022-08-24T20:35:51.228Z,25.70
2022-08-24T20:38:20.068Z,25.60
2022-08-24T20:40:47.789Z,25.50
2022-08-24T20:43:14.793Z,25.50
2022-08-24T20:45:41.932Z,25.60
2022-08-24T20:48:12.249Z,25.60
2022-08-24T20:50:43.484Z,25.60
2022-08-24T20:53:11.728Z,25.50
2022-08-24T20:55:42.442Z,25.50
2022-08-24T20:58:09.949Z,25.40
2022-08-24T21:00:37.457Z,25.30
2022-08-24T21:03:04.794Z,25.20
2022-08-24T21:05:32.147Z,25.20
2022-08-24T21:07:59.386Z,25.20
2022-08-24T21:10:29.767Z,25.20
2022-08-24T21:12:56.725Z,25.10
2022-08-24T21:15:23.971Z,25.00
2022-08-24T21:17:51.045Z,25.00
2022-08-24T21:20:19.902Z,24.80
2022-08-24T21:22:47.109Z,24.80
2022-08-24T21:25:14.743Z,24.60
2022-08-24T21:27:44.673Z,24.60
2022-08-24T21:30:15.306Z,24.50
2022-08-24T21:33:00.880Z,24.50
2022-08-24T21:35:27.994Z,24.50
2022-08-24T21:37:57.158Z,24.40
2022-08-24T21:40:26.316Z,24.40
2022-08-24T21:42:53.252Z,24.40
2022-08-24T21:45:20.632Z,24.30
2022-08-24T21:47:47.998Z,24.30
2022-08-24T21:50:16.315Z,24.30
2022-08-24T21:52:43.372Z,24.30
2022-08-24T21:55:14.859Z,24.30
2022-08-24T21:57:42.405Z,24.30
2022-08-24T22:00:14.416Z,24.30
2022-08-24T22:02:42.165Z,24.30
2022-08-24T22:05:09.500Z,24.30
2022-08-24T22:07:36.813Z,24.20
2022-08-24T22:10:04.738Z,24.30
2022-08-24T22:12:31.610Z,24.20
2022-08-24T22:14:58.653Z,24.20
2022-08-24T22:17:25.582Z,24.10
2022-08-24T22:19:52.443Z,24.10
2022-08-24T22:22:19.438Z,24.10
2022-08-24T22:24:46.473Z,24.00
2022-08-24T22:27:13.624Z,23.90
2022-08-24T22:29:40.515Z,24.00
2022-08-24T22:32:07.974Z,23.90
2022-08-24T22:34:38.929Z,23.80
2022-08-24T22:37:06.229Z,23.70
2022-08-24T22:39:33.341Z,23.70
2022-08-24T22:42:00.322Z,23.60
2022-08-24T22:44:27.907Z,23.50
2022-08-24T22:47:00.290Z,23.50
2022-08-24T22:49:30.526Z,23.40
2022-08-24T22:51:57.575Z,23.40
2022-08-24T22:54:25.631Z,23.40
2022-08-24T22:56:55.316Z,23.40
2022-08-24T22:59:37.131Z,23.30
2022-08-24T23:02:08.707Z,23.20
2022-08-24T23:04:38.013Z,23.30
2022-08-24T23:07:05.782Z,23.30
2022-08-24T23:09:44.767Z,23.30
2022-08-24T23:12:16.151Z,23.20
2022-08-24T23:14:43.922Z,23.10
2022-08-24T23:17:11.253Z,23.10
2022-08-24T23:19:56.935Z,23.10
2022-08-24T23:22:23.950Z,23.10
2022-08-24T23:24:52.884Z,22.90
2022-08-24T23:27:21.631Z,22.90
2022-08-24T23:29:49.459Z,22.90
2022-08-24T23:32:18.296Z,22.90
2022-08-24T23:34:48.666Z,22.80
2022-08-24T23:37:17.409Z,22.80
2022-08-24T23:39:44.511Z,22.70
2022-08-24T23:42:12.367Z,22.70
2022-08-24T23:44:39.802Z,22.70
2022-08-24T23:47:06.869Z,22.60
2022-08-24T23:49:34.673Z,22.60
2022-08-24T23:52:01.917Z,22.60
2022-08-24T23:54:29.160Z,22.60
2022-08-24T23:56:56.652Z,22.50
2022-08-24T23:59:29.482Z,22.50
